Time;durP1;ratioP1;P1;durP2;ratioP2;P2;SDS_P1;SDS_P2;PMS_P1;PMS_P2;Temp;Humidity;BMP_temperature;BMP_pressure;BME280_temperature;BME280_humidity;BME280_pressure;Samples;Min_cycle;Max_cycle;Signal;HPM_P1;HPM_P2
2022/01/27 00:04:04;;;;;;;14.03;9.33;;;;;;;1.73;87.12;100749.31;3214925;86;20937;-70
2022/01/27 00:08:51;;;;;;;17.10;12.33;;;;;;;1.74;87.13;100747.25;3217074;86;21494;-71
2022/01/27 00:13:44;;;;;;;17.50;11.90;;;;;;;1.74;87.05;100747.25;3253600;86;20965;-71
2022/01/27 00:18:30;;;;;;;12.13;9.23;;;;;;;1.73;87.02;100744.19;3207974;86;21501;-70
2022/01/27 00:23:21;;;;;;;15.90;11.28;;;;;;;1.74;87.01;100753.66;3250782;86;21015;-70
2022/01/27 00:28:12;;;;;;;16.70;11.73;;;;;;;1.73;87.01;100744.19;3262087;86;21044;-70
2022/01/27 00:33:04;;;;;;;17.30;12.18;;;;;;;1.72;86.94;100751.42;3214910;86;20941;-70
2022/01/27 00:37:55;;;;;;;15.53;11.08;;;;;;;1.70;86.95;100741.08;3269395;86;21651;-71
2022/01/27 00:42:46;;;;;;;18.20;11.45;;;;;;;1.69;86.84;100739.72;3213896;86;21020;-71
2022/01/27 00:47:37;;;;;;;16.67;11.22;;;;;;;1.63;86.85;100738.13;3253240;86;20956;-71
2022/01/27 00:52:51;;;;;;;12.50;9.45;;;;;;;1.58;86.74;100738.27;3250719;86;21282;-70
2022/01/27 00:57:39;;;;;;;16.82;10.10;;;;;;;1.51;86.71;100739.20;3205461;86;20993;-70
2022/01/27 01:02:30;;;;;;;13.50;9.95;;;;;;;1.48;86.84;100736.88;3230419;86;20993;-70
2022/01/27 01:07:11;;;;;;;14.55;10.15;;;;;;;1.44;86.99;100728.14;3212231;86;21458;-70
2022/01/27 01:17:31;;;;;;;16.30;11.50;;;;;;;1.43;87.11;100736.65;3247928;86;21005;-72
2022/01/27 01:37:24;;;;;;;13.45;9.93;;;;;;;1.48;87.39;100716.38;3198346;86;21160;-71
2022/01/27 01:42:16;;;;;;;19.20;11.30;;;;;;;1.47;87.32;100716.78;3201157;86;21057;-71
2022/01/27 01:47:07;;;;;;;14.75;10.20;;;;;;;1.47;87.43;100723.19;3227266;86;21530;-70
2022/01/27 01:52:05;;;;;;;12.45;9.30;;;;;;;1.48;87.48;100724.94;3247262;86;21040;-70
2022/01/27 01:56:56;;;;;;;16.87;11.43;;;;;;;1.50;87.55;100715.68;3247291;86;22042;-71
2022/01/27 02:01:47;;;;;;;18.65;11.20;;;;;;;1.52;87.58;100723.42;3193183;86;22077;-71
2022/01/27 02:06:47;;;;;;;19.32;11.65;;;;;;;1.50;87.52;100715.68;3204638;86;21000;-70
2022/01/27 02:21:59;;;;;;;22.70;13.28;;;;;;;1.51;87.70;100713.58;3384075;81;21046;-71
2022/01/27 02:26:51;;;;;;;20.48;11.55;;;;;;;1.51;87.72;100715.27;3375089;83;28768;-70
2022/01/27 02:31:44;;;;;;;24.47;14.80;;;;;;;1.51;87.81;100705.89;3309308;83;20971;-71
2022/01/27 02:36:35;;;;;;;24.87;14.58;;;;;;;1.50;88.01;100700.68;3351961;83;21026;-70
2022/01/27 02:41:28;;;;;;;22.45;11.83;;;;;;;1.51;87.93;100699.48;3302369;83;20940;-71
2022/01/27 02:46:33;;;;;;;28.02;14.85;;;;;;;1.50;87.94;100697.74;3346881;83;20963;-71
2022/01/27 02:51:24;;;;;;;33.58;16.62;;;;;;;1.51;87.97;100685.39;3367169;83;21967;-70
2022/01/27 02:56:15;;;;;;;30.32;16.07;;;;;;;1.52;88.03;100671.80;3321806;83;20999;-70
2022/01/27 03:01:06;;;;;;;26.17;12.80;;;;;;;1.51;88.03;100682.83;3318382;83;20914;-71
2022/01/27 03:05:57;;;;;;;24.90;14.30;;;;;;;1.51;88.05;100678.98;3312461;83;21682;-71
2022/01/27 03:10:55;;;;;;;27.93;13.80;;;;;;;1.52;88.17;100672.17;3360237;83;21042;-72
2022/01/27 03:15:46;;;;;;;28.75;14.45;;;;;;;1.53;88.16;100672.25;3315909;83;21190;-71
2022/01/27 03:20:39;;;;;;;27.73;14.78;;;;;;;1.51;88.09;100673.86;3348400;83;20943;-71
2022/01/27 03:25:30;;;;;;;27.67;15.20;;;;;;;1.51;88.17;100657.20;3334186;83;20952;-71
2022/01/27 03:30:21;;;;;;;26.20;13.48;;;;;;;1.53;88.34;100660.72;3334192;83;20968;-71
2022/01/27 03:35:13;;;;;;;28.10;15.23;;;;;;;1.55;88.33;100653.53;3348063;83;21551;-71
2022/01/27 03:40:06;;;;;;;28.85;15.30;;;;;;;1.53;88.28;100649.60;3325698;83;21101;-71
2022/01/27 03:44:57;;;;;;;27.13;13.98;;;;;;;1.55;88.31;100649.69;3303450;83;21021;-70
2022/01/27 03:49:48;;;;;;;31.57;16.65;;;;;;;1.56;88.40;100648.48;3329688;83;21015;-70
2022/01/27 03:54:39;;;;;;;27.45;14.07;;;;;;;1.56;88.29;100650.14;3362191;83;20907;-71
2022/01/27 03:59:31;;;;;;;31.42;16.35;;;;;;;1.57;88.26;100660.89;3319196;83;21241;-71
2022/01/27 04:04:23;;;;;;;34.50;16.37;;;;;;;1.55;88.33;100654.81;3325756;83;21037;-71
2022/01/27 04:09:14;;;;;;;34.55;16.00;;;;;;;1.56;88.39;100652.71;3337757;83;20995;-71
2022/01/27 04:14:06;;;;;;;28.12;14.80;;;;;;;1.52;88.45;100652.58;3355063;83;21038;-71
2022/01/27 04:18:57;;;;;;;30.68;14.78;;;;;;;1.52;88.53;100650.02;3321150;83;21527;-70
2022/01/27 04:23:50;;;;;;;28.12;14.03;;;;;;;1.51;88.62;100645.67;3347419;83;21014;-70
2022/01/27 04:28:42;;;;;;;19.80;11.73;;;;;;;1.51;88.60;100626.86;3283285;82;21848;-70
2022/01/27 04:33:36;;;;;;;29.27;13.32;;;;;;;1.52;88.63;100633.36;3334250;84;20972;-71
2022/01/27 04:38:35;;;;;;;33.60;15.13;;;;;;;1.50;88.49;100620.87;3306494;82;20971;-71
2022/01/27 04:43:31;;;;;;;30.52;13.60;;;;;;;1.48;88.46;100617.31;3310993;82;20995;-71
2022/01/27 04:48:18;;;;;;;25.85;13.15;;;;;;;1.50;88.62;100632.40;3276775;83;21005;-70
2022/01/27 04:53:13;;;;;;;21.02;10.55;;;;;;;1.49;88.56;100631.03;3308157;83;21066;-71
2022/01/27 04:58:15;;;;;;;28.98;13.22;;;;;;;1.51;88.74;100624.30;3321650;83;21022;-71
2022/01/27 05:03:02;;;;;;;30.00;15.18;;;;;;;1.50;88.58;100605.49;3299386;83;20927;-72
2022/01/27 05:07:59;;;;;;;29.10;13.30;;;;;;;1.51;88.66;100593.14;3323949;83;21448;-71
2022/01/27 05:12:51;;;;;;;27.87;14.83;;;;;;;1.54;88.55;100598.84;3298228;83;20978;-71
2022/01/27 05:17:41;;;;;;;32.05;15.08;;;;;;;1.55;88.55;100592.03;3310309;83;21683;-71
2022/01/27 05:22:33;;;;;;;19.15;11.53;;;;;;;1.56;88.53;100584.42;3320524;83;21259;-71
2022/01/27 05:27:24;;;;;;;23.60;13.40;;;;;;;1.59;88.63;100576.00;3321159;83;20990;-70
2022/01/27 05:32:15;;;;;;;27.55;12.58;;;;;;;1.60;88.53;100571.37;3308819;83;21483;-71
2022/01/27 05:37:06;;;;;;;24.77;13.53;;;;;;;1.62;88.52;100554.38;3384949;82;22665;-71
2022/01/27 05:41:57;;;;;;;23.57;11.08;;;;;;;1.63;88.45;100561.28;3340269;84;21318;-71
2022/01/27 05:46:48;;;;;;;20.62;11.33;;;;;;;1.64;88.44;100563.89;3362406;83;21013;-71
2022/01/27 05:51:39;;;;;;;23.67;13.08;;;;;;;1.65;88.44;100571.20;3329562;83;21216;-71
2022/01/27 05:56:30;;;;;;;22.00;12.63;;;;;;;1.65;88.43;100563.52;3301337;83;21574;-71
2022/01/27 06:01:21;;;;;;;21.48;12.30;;;;;;;1.65;88.38;100550.70;3311269;83;21014;-71
2022/01/27 06:06:12;;;;;;;23.60;12.70;;;;;;;1.67;88.40;100548.67;3371939;83;22302;-70
2022/01/27 06:11:04;;;;;;;26.37;13.15;;;;;;;1.68;88.37;100545.32;3352811;83;20990;-71
2022/01/27 06:15:55;;;;;;;24.98;12.65;;;;;;;1.70;88.33;100547.97;3368427;83;21004;-71
2022/01/27 06:20:46;;;;;;;24.37;13.98;;;;;;;1.70;88.34;100540.27;3354367;83;21491;-71
2022/01/27 06:25:38;;;;;;;24.32;12.80;;;;;;;1.70;88.33;100547.55;3354144;83;20947;-71
2022/01/27 06:30:34;;;;;;;30.17;14.30;;;;;;;1.70;88.45;100533.87;3334713;83;21539;-70
2022/01/27 06:35:22;;;;;;;27.87;14.68;;;;;;;1.70;88.49;100529.61;3326943;83;21460;-70
2022/01/27 06:40:15;;;;;;;27.37;15.03;;;;;;;1.71;88.52;100512.54;3326596;83;20975;-71
2022/01/27 06:45:07;;;;;;;29.48;15.43;;;;;;;1.73;88.52;100503.23;3294724;83;20991;-70
2022/01/27 06:49:59;;;;;;;29.98;15.55;;;;;;;1.73;88.54;100504.93;3312347;83;20982;-70
2022/01/27 06:54:50;;;;;;;24.67;14.00;;;;;;;1.73;88.54;100496.83;3296940;83;22018;-70
2022/01/27 06:59:42;;;;;;;32.05;17.57;;;;;;;1.73;88.49;100486.58;3313832;83;21022;-70
2022/01/27 07:04:33;;;;;;;29.63;15.55;;;;;;;1.75;88.58;100484.09;3321623;83;21026;-69
2022/01/27 07:09:24;;;;;;;27.95;15.00;;;;;;;1.76;88.54;100489.30;3301159;83;20972;-69
2022/01/27 07:14:15;;;;;;;32.75;17.92;;;;;;;1.78;88.54;100477.84;3327260;83;20969;-69
2022/01/27 07:19:06;;;;;;;31.65;18.05;;;;;;;1.78;88.45;100473.59;3307834;83;21491;-70
2022/01/27 07:23:57;;;;;;;31.95;17.48;;;;;;;1.83;88.47;100467.41;3332692;83;20991;-69
2022/01/27 07:28:48;;;;;;;30.88;16.75;;;;;;;1.86;88.35;100465.88;3328077;83;20956;-69
2022/01/27 07:33:39;;;;;;;29.23;17.73;;;;;;;1.89;88.38;100476.25;3307051;83;21023;-70
2022/01/27 07:38:30;;;;;;;31.40;17.23;;;;;;;1.92;88.29;100482.36;3359702;83;20985;-71
2022/01/27 07:43:21;;;;;;;30.25;18.60;;;;;;;1.91;88.21;100473.77;3357277;83;21006;-70
2022/01/27 07:48:12;;;;;;;29.72;17.35;;;;;;;1.90;88.17;100465.20;3343926;83;20985;-70
2022/01/27 07:53:03;;;;;;;30.30;17.75;;;;;;;1.93;88.12;100467.44;3313367;83;21580;-71
2022/01/27 07:57:55;;;;;;;33.53;18.25;;;;;;;1.93;88.03;100471.28;3385721;83;22247;-70
2022/01/27 08:02:46;;;;;;;26.82;17.05;;;;;;;1.94;87.99;100470.48;3338651;83;21022;-70
2022/01/27 08:07:38;;;;;;;35.45;18.40;;;;;;;1.94;87.93;100461.52;3292685;83;21686;-70
2022/01/27 08:12:29;;;;;;;36.53;18.62;;;;;;;1.94;87.97;100452.54;3317208;83;21070;-70
2022/01/27 08:17:20;;;;;;;29.75;17.77;;;;;;;1.97;87.84;100435.99;3309595;83;20963;-70
2022/01/27 08:22:11;;;;;;;33.70;18.80;;;;;;;1.97;87.89;100429.20;3315934;83;21022;-71
2022/01/27 08:27:05;;;;;;;38.05;20.52;;;;;;;1.97;87.92;100411.63;3308100;83;21432;-70
2022/01/27 08:36:46;;;;;;;39.20;21.10;;;;;;;1.99;87.94;100411.33;3334298;83;21018;-70
2022/01/27 08:41:37;;;;;;;35.63;20.37;;;;;;;2.04;87.85;100394.44;3332518;83;20962;-70
2022/01/27 08:46:28;;;;;;;28.87;17.70;;;;;;;2.07;87.80;100393.31;3330276;83;21054;-71
2022/01/27 08:51:21;;;;;;;36.30;20.70;;;;;;;2.12;87.77;100386.70;3381869;83;20963;-71
2022/01/27 08:56:16;;;;;;;34.50;18.92;;;;;;;2.17;87.55;100367.69;3362637;83;21198;-71
2022/01/27 09:01:06;;;;;;;28.15;16.97;;;;;;;2.21;87.49;100371.73;3384981;83;20979;-71
2022/01/27 09:05:58;;;;;;;30.92;17.37;;;;;;;2.23;87.50;100375.23;3365974;83;20915;-71
2022/01/27 09:10:49;;;;;;;35.88;19.40;;;;;;;2.25;87.31;100349.27;3327731;83;21291;-73
2022/01/27 09:15:40;;;;;;;38.28;21.75;;;;;;;2.31;87.32;100355.45;3339394;83;20975;-73
2022/01/27 09:20:31;;;;;;;38.20;20.17;;;;;;;2.28;87.24;100346.82;3353297;83;21129;-72
2022/01/27 09:25:29;;;;;;;31.42;18.05;;;;;;;2.27;87.16;100352.78;3341660;83;21014;-72
2022/01/27 09:30:18;;;;;;;30.90;18.35;;;;;;;2.25;87.21;100346.70;3324157;83;20986;-72
2022/01/27 09:35:10;;;;;;;33.33;19.30;;;;;;;2.21;87.04;100352.48;3304801;83;21010;-74
2022/01/27 09:40:02;;;;;;;35.80;20.20;;;;;;;2.21;87.07;100337.09;3320120;83;21026;-74
2022/01/27 09:44:54;;;;;;;30.37;19.02;;;;;;;2.21;87.11;100316.58;3268247;83;21086;-73
2022/01/27 09:49:52;;;;;;;31.10;17.82;;;;;;;2.22;87.11;100325.17;3325274;83;20975;-72
2022/01/27 09:54:41;;;;;;;30.80;18.40;;;;;;;2.20;86.95;100314.84;3346151;83;20960;-73
2022/01/27 09:59:32;;;;;;;31.55;19.65;;;;;;;2.21;87.04;100319.55;3349774;83;20993;-74
2022/01/27 10:04:46;;;;;;;30.10;19.52;;;;;;;2.23;87.11;100321.78;3336866;83;20991;-73
2022/01/27 10:09:37;;;;;;;29.32;18.42;;;;;;;2.25;87.04;100313.36;3381201;83;21318;-81
2022/01/27 10:14:35;;;;;;;29.92;18.62;;;;;;;2.24;86.96;100310.31;3327629;83;20965;-73
2022/01/27 10:19:26;;;;;;;;;;;;;;;2.24;86.92;100301.33;3253510;85;21476;-72
2022/01/27 10:24:24;;;;;;;31.82;17.87;;;;;;;2.26;86.95;100284.73;3214820;86;20164;-73
2022/01/27 10:29:29;;;;;;;30.48;19.12;;;;;;;2.27;86.73;100267.22;3237116;86;20967;-74
2022/01/27 10:34:11;;;;;;;26.10;16.00;;;;;;;2.31;86.87;100258.87;3234862;86;21265;-73
2022/01/27 10:39:08;;;;;;;26.37;18.12;;;;;;;2.36;86.70;100255.20;3233939;86;21007;-73
2022/01/27 10:44:13;;;;;;;26.60;15.88;;;;;;;2.37;86.77;100250.55;3240117;86;21994;-73
2022/01/27 10:49:11;;;;;;;29.55;17.45;;;;;;;2.37;86.55;100242.44;3214985;86;21004;-79
2022/01/27 10:54:18;;;;;;;30.57;17.80;;;;;;;2.41;86.48;100224.20;3208394;86;20983;-80
2022/01/27 10:59:04;;;;;;;26.57;17.02;;;;;;;2.45;86.46;100218.38;3342444;83;21809;-80
2022/01/27 11:03:59;;;;;;;23.67;14.53;;;;;;;2.50;86.43;100214.31;3335846;83;21010;-75
2022/01/27 11:08:54;;;;;;;23.67;15.38;;;;;;;2.56;86.28;100203.03;3322843;83;20999;-78
2022/01/27 11:13:44;;;;;;;24.27;15.90;;;;;;;2.61;86.17;100193.84;3322545;83;21476;-75
2022/01/27 11:18:36;;;;;;;22.90;14.68;;;;;;;2.62;85.93;100176.32;3347232;83;20979;-73
2022/01/27 11:28:35;;;;;;;15.72;11.00;;;;;;;2.67;85.79;100164.55;3372068;83;21101;-80
2022/01/27 11:33:35;;;;;;;21.17;14.43;;;;;;;2.68;85.60;100150.02;3363609;83;20925;-73
2022/01/27 11:38:28;;;;;;;20.20;13.10;;;;;;;2.70;85.63;100139.81;3325179;83;21065;-73
2022/01/27 11:43:23;;;;;;;19.70;13.78;;;;;;;2.73;85.58;100137.38;3339254;83;21507;-73
2022/01/27 11:48:24;;;;;;;21.30;15.20;;;;;;;2.75;85.65;100135.73;3366956;83;21291;-73
2022/01/27 11:53:44;;;;;;;18.55;12.50;;;;;;;2.76;85.45;100122.97;3332637;82;20991;-73
2022/01/27 11:58:48;;;;;;;19.73;12.70;;;;;;;2.81;85.47;100121.87;3366062;83;21018;-72
2022/01/27 12:03:40;;;;;;;22.32;13.65;;;;;;;2.82;85.40;100112.05;3336359;83;21046;-72
2022/01/27 12:08:31;;;;;;;16.87;11.83;;;;;;;2.79;85.15;100105.50;3346138;83;21041;-74
2022/01/27 12:13:43;;;;;;;18.80;12.20;;;;;;;2.77;85.08;100099.44;3326803;83;21026;-73
2022/01/27 12:18:38;;;;;;;16.95;10.95;;;;;;;2.78;84.93;100096.07;3396430;83;21439;-73
2022/01/27 12:23:29;;;;;;;15.68;11.00;;;;;;;2.78;85.26;100081.95;3329258;83;21007;-73
2022/01/27 12:28:20;;;;;;;12.88;8.63;;;;;;;2.79;84.92;100068.28;3345983;83;21559;-72
2022/01/27 12:33:11;;;;;;;16.85;10.82;;;;;;;2.81;84.79;100065.39;3299935;82;22262;-73
2022/01/27 12:38:03;;;;;;;12.93;8.78;;;;;;;2.82;84.83;100049.15;3345462;83;21018;-73
2022/01/27 12:43:07;;;;;;;14.85;10.18;;;;;;;2.84;84.64;100041.09;3391450;83;21737;-73
2022/01/27 12:47:55;;;;;;;10.93;7.67;;;;;;;2.87;84.77;100021.95;3348931;83;20995;-73
2022/01/27 12:52:51;;;;;;;14.85;9.25;;;;;;;2.86;84.57;100024.05;3347908;83;20976;-73
2022/01/27 12:57:42;;;;;;;12.63;8.43;;;;;;;2.85;84.72;100015.89;3345363;83;20955;-74
2022/01/27 13:02:33;;;;;;;11.97;7.95;;;;;;;2.82;84.76;100011.50;3340339;83;21250;-73
2022/01/27 13:07:27;;;;;;;10.88;8.25;;;;;;;2.81;84.63;100007.20;3316567;83;21002;-74
2022/01/27 13:12:24;;;;;;;9.95;6.85;;;;;;;2.75;84.75;99999.67;3327861;83;20950;-73
2022/01/27 13:18:10;;;;;;;14.80;7.70;;;;;;;2.69;84.84;100005.46;3316965;83;20986;-73
2022/01/27 13:22:26;;;;;;;7.92;5.78;;;;;;;2.62;85.19;100008.20;3319518;83;21030;-72
2022/01/27 13:27:12;;;;;;;10.28;7.10;;;;;;;2.56;85.37;99988.73;3342564;83;22153;-72
2022/01/27 13:32:05;;;;;;;14.05;9.13;;;;;;;2.52;85.43;99979.16;3327136;83;21121;-72
2022/01/27 13:36:59;;;;;;;9.93;6.95;;;;;;;2.51;85.66;99976.55;3310079;83;20978;-72
2022/01/27 13:41:51;;;;;;;11.88;8.35;;;;;;;2.48;85.70;99970.88;3322191;83;21468;-71
2022/01/27 13:46:57;;;;;;;13.00;8.83;;;;;;;2.37;85.46;99974.33;3268151;83;21012;-73
2022/01/27 13:52:11;;;;;;;11.10;8.20;;;;;;;2.32;85.76;99965.99;3356959;83;20991;-74
2022/01/27 13:57:19;;;;;;;12.13;8.48;;;;;;;2.22;85.91;99951.54;3345728;83;20982;-72
2022/01/27 14:02:31;;;;;;;10.88;8.15;;;;;;;2.15;86.13;99941.00;3329492;83;20975;-72
2022/01/27 14:07:32;;;;;;;10.93;8.48;;;;;;;2.08;86.21;99947.58;3357274;83;21618;-72
2022/01/27 14:12:30;;;;;;;8.78;7.20;;;;;;;1.98;86.10;99932.64;3309345;83;20963;-72
2022/01/27 14:17:27;;;;;;;12.25;7.97;;;;;;;1.93;86.33;99928.60;3333191;83;21134;-73
2022/01/27 14:22:21;;;;;;;8.50;7.40;;;;;;;1.90;86.30;99916.55;3369937;83;20982;-72
2022/01/27 14:27:12;;;;;;;9.13;7.08;;;;;;;1.89;86.48;99913.51;3383009;83;20987;-74
2022/01/27 14:32:04;;;;;;;7.17;5.90;;;;;;;1.87;86.52;99907.45;3306217;83;21105;-78
2022/01/27 14:36:55;;;;;;;10.65;8.00;;;;;;;1.79;86.19;99901.17;3351048;83;21006;-72
2022/01/27 14:41:46;;;;;;;11.85;8.80;;;;;;;1.69;86.32;99892.64;3331566;83;21145;-74
2022/01/27 14:46:41;;;;;;;9.53;7.22;;;;;;;1.61;86.42;99878.64;3311836;83;21580;-76
2022/01/27 14:51:33;;;;;;;11.30;8.23;;;;;;;1.58;86.58;99884.95;3317866;83;21004;-75
2022/01/27 14:56:24;;;;;;;10.45;8.20;;;;;;;1.56;86.62;99877.58;3356293;83;20962;-76
2022/01/27 15:01:15;;;;;;;13.60;8.80;;;;;;;1.46;86.41;99873.38;3360102;83;21018;-75
2022/01/27 15:06:08;;;;;;;11.80;7.92;;;;;;;1.35;86.26;99878.48;3312138;85;21246;-73
2022/01/27 15:10:59;;;;;;;10.10;7.67;;;;;;;1.29;86.48;99874.41;3252654;85;20901;-72
2022/01/27 15:21:00;;;;;;;9.95;8.23;;;;;;;1.19;86.85;99874.84;3232352;85;21002;-71
2022/01/27 15:25:51;;;;;;;12.78;8.95;;;;;;;1.17;86.97;99868.78;3277884;85;21471;-70
2022/01/27 15:30:42;;;;;;;10.20;8.33;;;;;;;1.16;87.06;99856.78;3290264;83;21125;-71
2022/01/27 15:35:34;;;;;;;11.33;8.43;;;;;;;1.18;87.10;99862.83;3351697;83;21411;-72
2022/01/27 15:40:27;;;;;;;14.50;10.48;;;;;;;1.12;87.02;99855.36;3318217;83;20991;-70
2022/01/27 15:45:22;;;;;;;10.65;6.62;;;;;;;1.13;87.20;99852.42;3267517;83;20982;-75
2022/01/27 15:50:12;;;;;;;15.53;9.05;;;;;;;1.13;87.58;99841.77;3337620;83;20990;-72
2022/01/27 15:55:06;;;;;;;16.20;10.85;;;;;;;1.11;87.46;99835.72;3322431;83;21043;-71
2022/01/27 15:59:58;;;;;;;12.78;8.28;;;;;;;1.14;87.58;99828.55;3327631;83;22151;-71
2022/01/27 16:04:51;;;;;;;13.83;9.00;;;;;;;1.14;87.71;99828.17;3344715;83;22182;-71
2022/01/27 16:09:43;;;;;;;13.85;8.75;;;;;;;1.16;87.68;99819.66;3299879;83;20998;-71
2022/01/27 16:14:36;;;;;;;13.35;8.30;;;;;;;1.18;87.76;99825.70;3289860;83;37762;-71
2022/01/27 16:19:27;;;;;;;14.30;9.45;;;;;;;1.17;87.58;99822.70;3351770;83;21273;-72
2022/01/27 16:24:18;;;;;;;17.85;10.28;;;;;;;1.16;87.69;99817.09;3320852;83;20993;-71
2022/01/27 16:29:09;;;;;;;15.80;10.13;;;;;;;1.19;87.76;99815.53;3302307;83;21030;-72
2022/01/27 16:34:00;;;;;;;12.82;9.58;;;;;;;1.21;87.89;99814.31;3310466;83;20970;-71
2022/01/27 16:38:52;;;;;;;10.48;6.40;;;;;;;1.21;87.89;99814.31;3291194;83;21680;-73
2022/01/27 16:43:43;;;;;;;9.78;7.80;;;;;;;1.26;88.03;99803.44;3353276;83;21087;-73
2022/01/27 16:48:34;;;;;;;8.33;6.00;;;;;;;1.27;88.01;99808.14;3337060;83;20973;-73
2022/01/27 16:53:25;;;;;;;12.55;8.08;;;;;;;1.30;88.06;99801.87;3290301;83;21718;-73
2022/01/27 16:58:17;;;;;;;11.35;8.15;;;;;;;1.32;88.02;99804.08;3321618;83;21444;-74
2022/01/27 17:03:08;;;;;;;10.45;7.37;;;;;;;1.34;88.06;99805.01;3338816;83;21546;-73
2022/01/27 17:07:59;;;;;;;12.50;7.95;;;;;;;1.34;88.17;99788.36;3320988;83;21137;-73
2022/01/27 17:12:51;;;;;;;11.08;7.60;;;;;;;1.36;88.34;99792.27;3335401;83;20971;-74
2022/01/27 17:17:46;;;;;;;11.03;8.93;;;;;;;1.37;88.44;99784.64;3333397;83;20944;-74
2022/01/27 17:22:36;;;;;;;12.88;8.03;;;;;;;1.40;88.42;99768.12;3320321;83;20991;-75
2022/01/27 17:27:29;;;;;;;11.33;9.10;;;;;;;1.43;88.48;99774.66;3313724;83;20943;-74
2022/01/27 17:32:20;;;;;;;12.30;8.95;;;;;;;1.44;88.47;99758.45;3367621;83;21502;-74
2022/01/27 17:37:11;;;;;;;15.38;10.70;;;;;;;1.46;88.52;99758.09;3396569;83;21005;-74
2022/01/27 17:42:03;;;;;;;15.38;11.35;;;;;;;1.50;88.58;99761.65;3339041;83;20987;-74
2022/01/27 17:46:54;;;;;;;17.50;11.12;;;;;;;1.51;88.59;99754.03;3372789;83;20994;-75
2022/01/27 17:51:48;;;;;;;17.10;12.25;;;;;;;1.56;88.63;99745.63;3360689;83;21436;-74
2022/01/27 17:56:39;;;;;;;17.30;12.55;;;;;;;1.60;88.79;99750.08;3394139;83;21197;-74
2022/01/27 18:01:32;;;;;;;13.90;10.82;;;;;;;1.65;88.78;99746.00;3393147;83;21006;-73
2022/01/27 18:06:26;;;;;;;11.33;8.63;;;;;;;1.68;88.75;99738.02;3345635;83;21641;-73
2022/01/27 18:11:23;;;;;;;15.35;11.00;;;;;;;1.72;88.87;99731.31;3368549;83;21045;-73
2022/01/27 18:16:12;;;;;;;14.80;11.90;;;;;;;1.75;88.80;99725.00;3346411;83;20969;-73
2022/01/27 18:21:04;;;;;;;16.65;11.78;;;;;;;1.79;88.85;99721.75;3373147;83;21237;-73
2022/01/27 18:25:55;;;;;;;12.85;9.55;;;;;;;1.81;88.98;99720.11;3310345;83;21003;-73
2022/01/27 18:30:46;;;;;;;16.48;12.23;;;;;;;1.84;89.00;99716.77;3336972;83;21140;-73
2022/01/27 18:35:37;;;;;;;16.42;11.28;;;;;;;1.85;89.02;99711.70;3319205;83;21006;-72
2022/01/27 18:40:28;;;;;;;16.20;12.13;;;;;;;1.89;89.08;99698.17;3337982;83;20997;-73
2022/01/27 18:45:19;;;;;;;19.10;12.98;;;;;;;1.92;89.11;99697.42;3334350;83;21143;-73
2022/01/27 18:50:11;;;;;;;19.73;12.55;;;;;;;1.95;89.19;99685.11;3360538;83;21555;-75
2022/01/27 18:55:03;;;;;;;17.87;13.55;;;;;;;1.98;89.12;99687.79;3316087;83;21416;-74
2022/01/27 18:59:54;;;;;;;20.52;12.53;;;;;;;2.01;89.19;99676.38;3331403;83;20943;-73
2022/01/27 19:04:45;;;;;;;20.75;13.85;;;;;;;2.02;89.23;99678.09;3390341;83;20955;-74
2022/01/27 19:09:37;;;;;;;20.97;15.35;;;;;;;2.04;89.19;99672.61;3343553;83;21635;-75
2022/01/27 19:14:28;;;;;;;18.75;13.65;;;;;;;2.07;89.19;99672.72;3296394;83;21288;-74
2022/01/27 19:19:20;;;;;;;17.20;13.50;;;;;;;2.07;89.17;99664.61;3386662;83;21520;-73
2022/01/27 19:24:13;;;;;;;20.92;15.48;;;;;;;2.10;89.17;99667.70;3385018;83;20939;-74
2022/01/27 19:29:04;;;;;;;19.65;13.13;;;;;;;2.12;89.21;99674.17;3379072;83;21523;-72
2022/01/27 19:33:55;;;;;;;16.67;13.78;;;;;;;2.13;89.24;99672.95;3330622;83;21030;-74
2022/01/27 19:38:46;;;;;;;19.15;13.32;;;;;;;2.16;89.21;99655.50;3285347;83;20963;-72
2022/01/27 19:43:41;;;;;;;18.73;13.90;;;;;;;2.16;89.26;99642.25;3326440;83;20951;-73
2022/01/27 19:48:33;;;;;;;17.40;13.00;;;;;;;2.20;89.26;99647.08;3299391;83;21478;-73
2022/01/27 19:53:25;;;;;;;19.92;14.87;;;;;;;2.20;89.31;99636.81;3354675;83;20975;-73
2022/01/27 19:58:17;;;;;;;19.05;14.13;;;;;;;2.23;89.26;99631.80;3329669;83;21185;-73
2022/01/27 20:03:08;;;;;;;18.23;12.28;;;;;;;2.24;89.28;99620.31;3330819;83;21054;-72
2022/01/27 20:08:04;;;;;;;22.65;12.70;;;;;;;2.25;89.29;99615.66;3374612;83;20971;-73
2022/01/27 20:13:03;;;;;;;19.25;14.50;;;;;;;2.28;89.28;99604.61;3325934;83;20967;-74
2022/01/27 20:17:55;;;;;;;14.58;12.10;;;;;;;2.32;89.24;99610.70;3374197;83;21010;-73
2022/01/27 20:22:46;;;;;;;19.02;12.53;;;;;;;2.36;89.23;99595.87;3278750;83;21835;-73
2022/01/27 20:27:37;;;;;;;16.80;10.98;;;;;;;2.38;89.22;99606.66;3334306;83;20997;-73
2022/01/27 20:32:28;;;;;;;16.02;11.83;;;;;;;2.41;89.22;99595.61;3314329;83;20963;-74
2022/01/27 20:37:19;;;;;;;19.12;13.30;;;;;;;2.45;89.21;99604.75;3307214;83;20974;-73
2022/01/27 20:42:11;;;;;;;14.43;10.78;;;;;;;2.48;89.15;99597.55;3342999;83;20979;-74
2022/01/27 20:47:03;;;;;;;16.27;12.68;;;;;;;2.51;89.18;99589.95;3291380;83;20936;-74
2022/01/27 20:51:55;;;;;;;17.23;11.83;;;;;;;2.55;89.10;99587.93;3326396;83;20955;-74
2022/01/27 20:56:46;;;;;;;17.17;12.25;;;;;;;2.59;89.02;99574.36;3328752;83;22341;-74
2022/01/27 21:01:37;;;;;;;15.80;12.40;;;;;;;2.62;89.00;99561.63;3319656;83;21421;-73
2022/01/27 21:06:28;;;;;;;18.82;13.28;;;;;;;2.65;88.94;99558.30;3297916;83;21022;-74
2022/01/27 21:11:19;;;;;;;15.85;11.63;;;;;;;2.66;88.90;99557.07;3321088;83;20979;-74
2022/01/27 21:16:11;;;;;;;17.62;11.33;;;;;;;2.70;88.83;99550.72;3358099;83;21500;-73
2022/01/27 21:21:04;;;;;;;15.78;10.18;;;;;;;2.73;88.83;99543.13;3350269;83;21408;-74
2022/01/27 21:25:55;;;;;;;18.12;12.30;;;;;;;2.77;88.78;99539.42;3330652;83;20979;-74
2022/01/27 21:30:47;;;;;;;17.85;10.78;;;;;;;2.80;88.74;99535.64;3374954;83;21560;-74
2022/01/27 21:35:38;;;;;;;17.17;10.88;;;;;;;2.85;88.61;99526.80;3350412;83;21439;-73
2022/01/27 21:40:29;;;;;;;17.90;11.05;;;;;;;2.90;88.58;99524.34;3338476;83;20999;-73
2022/01/27 21:45:21;;;;;;;15.35;9.30;;;;;;;2.93;88.49;99515.03;3324938;83;21547;-74
2022/01/27 21:50:16;;;;;;;15.95;10.70;;;;;;;2.98;88.39;99520.31;3316763;83;21503;-74
2022/01/27 21:55:10;;;;;;;15.70;10.75;;;;;;;2.99;88.32;99501.10;3363171;83;20970;-73
2022/01/27 22:00:03;;;;;;;16.23;9.98;;;;;;;3.01;88.26;99485.31;3316311;83;21378;-74
2022/01/27 22:04:57;;;;;;;13.72;9.80;;;;;;;3.02;88.19;99492.20;3365950;83;20959;-73
2022/01/27 22:09:49;;;;;;;13.22;9.40;;;;;;;3.04;88.14;99490.94;3340553;83;21011;-73
2022/01/27 22:14:41;;;;;;;16.07;9.93;;;;;;;3.03;88.06;99474.67;3301908;83;20967;-74
2022/01/27 22:19:32;;;;;;;11.93;8.78;;;;;;;3.05;88.04;99479.43;3348300;83;21006;-73
2022/01/27 22:24:24;;;;;;;16.35;10.30;;;;;;;3.07;87.94;99482.47;3332978;83;22263;-73
2022/01/27 22:29:17;;;;;;;13.13;9.83;;;;;;;3.13;87.86;99469.78;3366963;83;20991;-73
2022/01/27 22:34:08;;;;;;;15.20;10.10;;;;;;;3.15;87.83;99469.40;3296924;83;21523;-74
2022/01/27 22:39:01;;;;;;;13.85;10.53;;;;;;;3.17;87.75;99460.06;3318674;83;20958;-73
2022/01/27 22:43:52;;;;;;;12.43;8.85;;;;;;;3.19;87.63;99455.83;3330498;83;21468;-74
2022/01/27 22:48:43;;;;;;;14.65;9.98;;;;;;;3.20;87.62;99454.98;3345593;83;22070;-74
2022/01/27 22:53:34;;;;;;;14.15;9.78;;;;;;;3.21;87.58;99454.17;3296646;83;21089;-73
2022/01/27 22:58:25;;;;;;;12.00;8.95;;;;;;;3.25;87.52;99454.70;3280940;83;20990;-74
2022/01/27 23:03:16;;;;;;;11.55;8.98;;;;;;;3.26;87.37;99442.31;3331810;83;20992;-74
2022/01/27 23:08:11;;;;;;;9.95;7.67;;;;;;;3.28;87.33;99454.78;3378230;83;20987;-74
2022/01/27 23:13:17;;;;;;;11.38;8.13;;;;;;;3.31;87.20;99437.28;3347445;83;21501;-74
2022/01/27 23:18:25;;;;;;;13.35;7.92;;;;;;;3.35;87.12;99421.14;3314800;83;20979;-72
2022/01/27 23:23:21;;;;;;;10.38;7.50;;;;;;;3.35;87.07;99409.15;3348534;83;20998;-75
2022/01/27 23:28:09;;;;;;;12.23;7.65;;;;;;;3.40;86.92;99405.00;3304885;83;21013;-74